Date,TemperatureHighF,TemperatureAvgF,TemperatureLowF,DewpointHighF,DewpointAvgF,DewpointLowF,HumidityHigh,HumidityAvg,HumidityLow,PressureMaxIn,PressureMinIn,WindSpeedMaxMPH,WindSpeedAvgMPH,GustSpeedMaxMPH,PrecipitationSumIn
2013-1-1,31.9,24.8,10.1,24.4,14.1,1.3,74,63,51,29.98,29.78,6,3,23,0.00
2013-1-2,23.8,12.9,1.5,15.5,5.4,-5.1,85,72,59,30.23,29.96,6,1,17,0.00
2013-1-3,21.4,6.2,-11.2,11.5,-1.4,-15.9,83,72,46,30.25,30.06,4,1,8,0.00
2013-1-4,35.7,28.1,15.8,20.5,17.5,11.6,87,65,49,30.06,29.87,7,2,23,0.00
2013-1-5,35.5,28.7,16.8,22.9,17.8,10.6,82,65,37,30.28,29.91,6,2,20,0.01
2013-1-6,35.2,27.1,18.2,27.5,22.1,13.6,88,81,67,30.22,29.97,2,0,6,0.00
2013-1-7,34.4,25.7,10.0,28.5,18.7,6.1,86,75,59,30.42,30.02,3,1,10,0.00
2013-1-8,41.3,20.1,4.3,24.2,12.5,0.3,88,74,43,30.45,30.33,3,0,7,0.04
2013-1-9,42.6,27.0,9.7,29.9,19.5,6.1,88,75,48,30.44,30.07,5,1,16,0.06
2013-1-10,40.8,33.5,22.2,28.7,21.7,17.3,83,62,46,30.58,30.15,7,2,23,0.00
2013-1-11,36.2,28.6,18.2,31.9,22.7,14.5,91,80,51,30.58,30.20,5,0,10,0.01
2013-1-12,45.6,36.6,33.1,41.5,34.1,30.8,92,91,83,30.21,30.14,1,0,4,0.01
2013-1-13,50.4,39.0,33.5,45.8,36.6,31.3,93,91,82,30.19,30.01,4,0,11,0.00
2013-1-14,46.7,37.5,30.5,44.4,30.7,21.4,93,77,52,30.32,29.91,6,1,19,0.09
2013-1-15,33.2,29.2,24.0,23.7,21.4,19.1,89,73,60,30.38,30.25,2,0,7,0.00
2013-1-16,31.8,29.1,26.6,28.8,25.5,20.5,91,86,75,30.27,29.86,1,0,3,0.00
2013-1-17,35.8,28.6,19.4,26.4,19.7,3.3,91,70,50,30.16,29.87,4,1,16,0.01
2013-1-18,19.8,14.0,6.6,5.6,-1.5,-9.0,81,51,35,30.45,30.09,5,1,17,0.00
2013-1-19,40.9,29.8,12.0,24.2,17.0,6.2,83,60,42,30.36,29.86,5,2,14,0.04
2013-1-20,44.6,33.0,18.8,30.8,19.5,7.9,83,58,39,29.99,29.60,6,3,20,0.13
2013-1-21,23.1,17.7,11.1,14.6,7.0,1.8,87,64,42,30.09,29.82,5,1,21,0.00
2013-1-22,17.9,12.5,6.6,12.5,0.6,-6.9,86,60,35,30.12,29.81,5,2,19,0.00
2013-1-23,9.3,2.4,-6.3,-1.8,-10.3,-12.6,75,55,38,30.20,30.11,5,2,20,0.00
2013-1-24,12.9,1.7,-11.3,-7.9,-10.7,-16.5,79,57,37,30.38,30.18,6,2,20,0.00
2013-1-25,17.3,8.2,-0.8,6.0,-6.4,-12.2,82,53,26,30.43,30.12,4,1,14,0.00
2013-1-26,17.2,7.2,-3.7,5.1,-1.4,-8.3,84,69,45,30.35,30.09,4,0,14,0.00
2013-1-27,23.5,12.4,3.0,2.3,0.1,-3.3,78,59,32,30.55,30.35,4,1,10,0.00
2013-1-28,24.7,17.9,4.7,21.7,11.7,-0.7,88,77,54,30.54,30.04,2,0,6,0.00
2013-1-29,39.8,31.3,24.8,33.6,28.1,21.8,91,88,77,30.19,30.04,2,0,6,0.55
2013-1-30,53.1,41.3,32.7,51.4,39.2,30.4,94,92,89,30.12,29.37,4,1,9,0.28
2013-1-31,54.2,36.1,22.3,52.4,29.1,14.3,94,76,52,29.62,28.95,7,3,22,0.86
2013-2-1,26.2,20.4,14.9,16.2,8.0,2.2,81,59,39,30.15,29.62,6,2,21,0.00
2013-2-2,25.8,16.3,3.8,13.2,4.9,-0.7,83,62,39,30.26,30.07,6,1,13,0.00
2013-2-3,26.4,17.2,8.5,12.1,9.0,5.2,87,72,44,30.08,29.81,4,0,10,0.00
2013-2-4,23.5,17.8,12.8,14.3,7.7,2.5,86,65,42,29.97,29.80,5,2,25,0.00
2013-2-5,28.8,20.3,12.5,16.5,8.5,3.5,75,61,42,30.04,29.93,4,1,9,0.00
2013-2-6,31.6,24.1,16.2,20.5,12.8,0.1,87,64,39,30.35,29.93,6,2,21,0.00
2013-2-7,25.7,18.4,6.2,7.0,3.2,-1.6,83,53,35,30.56,30.35,3,1,11,0.00
2013-2-8,25.9,22.4,18.4,19.2,14.2,4.8,85,71,45,30.45,29.78,8,3,30,0.00
2013-2-9,20.7,14.7,6.0,15.7,4.4,-6.8,87,65,38,30.35,29.83,5,1,24,0.00
2013-2-10,31.3,10.7,-8.8,9.8,-1.2,-13.8,81,63,23,30.55,30.36,3,0,7,0.00
2013-2-11,39.5,28.3,8.5,36.8,24.3,2.7,92,85,63,30.38,29.70,4,0,19,0.12
2013-2-12,35.8,33.3,29.9,28.1,24.6,20.0,79,70,64,29.93,29.72,7,3,24,0.01
2013-2-13,36.9,29.9,24.7,22.6,20.4,17.4,78,68,47,29.90,29.76,3,1,11,0.00
2013-2-14,40.3,26.7,12.6,20.8,17.8,9.2,88,71,42,30.00,29.75,3,0,7,0.01
2013-2-15,47.9,33.1,21.1,27.0,23.3,17.3,89,70,38,30.02,29.93,5,1,12,0.00
2013-2-16,32.7,27.8,22.9,25.7,17.3,4.8,88,66,45,30.03,29.82,2,0,10,0.01
2013-2-17,22.7,16.6,8.7,6.8,-0.2,-4.5,59,48,31,29.90,29.63,6,2,23,0.00
2013-2-18,24.8,13.0,4.6,3.2,-3.1,-7.6,73,50,27,30.24,29.90,5,1,21,0.00
2013-2-19,40.9,27.7,9.6,31.0,17.9,2.3,91,69,37,30.25,29.64,4,0,14,0.04
2013-2-20,32.3,24.3,20.8,30.0,15.2,9.0,91,69,49,29.87,29.64,6,2,19,0.00
2013-2-21,23.4,19.1,16.3,12.5,8.9,4.8,74,64,51,30.39,29.83,7,2,26,0.00
2013-2-22,41.5,25.0,6.7,20.3,14.1,2.4,85,65,38,30.47,30.31,3,0,9,0.00
2013-2-23,33.6,31.5,29.4,28.6,25.4,19.9,88,78,62,30.32,29.92,3,1,11,0.00
2013-2-24,38.7,32.8,29.7,33.4,28.9,25.0,90,86,81,29.97,29.77,2,0,9,0.00
2013-2-25,37.3,30.5,23.9,25.9,23.7,19.8,86,76,60,30.28,29.97,2,0,8,0.00
2013-2-26,38.8,29.8,16.9,26.3,22.0,14.0,89,73,57,30.36,30.12,7,1,16,0.00
2013-2-27,38.7,33.7,29.9,33.6,29.7,24.0,90,85,71,30.13,29.61,9,3,30,0.00
2013-2-28,42.4,34.3,31.0,36.3,31.0,28.5,91,88,78,29.65,29.57,2,0,6,0.00
2013-3-1,39.8,33.8,30.1,30.9,27.0,22.0,91,77,57,29.76,29.60,3,1,13,0.00
2013-3-2,33.0,29.7,26.6,24.8,22.7,20.0,82,75,68,29.76,29.71,3,1,11,0.00
2013-3-3,30.2,25.3,21.8,21.3,18.5,15.6,82,75,63,29.76,29.69,3,1,10,0.00
2013-3-4,31.3,25.2,21.7,19.5,17.3,15.0,77,72,58,29.91,29.75,5,2,15,0.00
2013-3-5,40.8,30.0,24.3,25.2,21.0,16.4,87,70,49,30.12,29.91,4,1,11,0.01
2013-3-6,36.2,33.1,26.9,29.1,26.1,22.7,87,76,68,30.14,30.05,7,3,22,0.01
2013-3-7,36.2,31.2,27.6,29.0,24.6,21.2,89,77,62,30.14,30.09,5,2,12,0.00
2013-3-8,36.1,27.3,16.4,28.5,23.7,12.4,89,86,74,30.31,30.06,1,0,2,0.02
2013-3-9,49.8,27.0,7.2,26.8,18.2,3.4,90,73,34,30.39,30.30,3,0,7,0.43
2013-3-10,56.5,36.3,16.7,27.3,20.2,13.8,89,59,20,30.43,30.26,4,1,10,0.02
2013-3-11,48.7,38.9,29.3,34.5,27.6,23.0,85,66,39,30.29,30.08,4,1,10,0.00
2013-3-12,48.9,43.9,36.4,45.2,40.3,32.1,92,87,78,30.09,29.70,4,1,17,0.71
2013-3-13,42.8,35.6,31.2,32.1,23.3,14.2,87,63,34,29.86,29.79,4,1,15,0.00
2013-3-14,30.9,23.7,19.5,20.1,11.0,4.4,75,58,46,29.91,29.82,6,2,18,0.00
2013-3-15,33.5,25.3,15.9,26.4,14.6,4.1,85,64,42,29.93,29.69,5,2,21,0.00
2013-3-16,34.5,26.4,15.3,21.0,11.8,6.8,80,55,35,29.92,29.77,5,1,14,0.00
2013-3-17,33.1,24.6,17.1,13.7,6.1,-1.6,73,48,24,30.34,29.92,7,2,19,0.00
2013-3-18,36.7,23.1,8.0,20.9,2.6,-7.5,83,46,15,30.49,30.17,6,1,17,0.00
2013-3-19,33.2,28.9,24.5,28.2,24.4,20.1,89,83,76,30.17,29.72,7,2,22,0.00
2013-3-20,31.7,26.3,20.0,21.9,16.9,13.9,81,68,53,29.85,29.77,5,2,17,0.00
2013-3-21,36.5,21.9,3.7,16.0,8.8,-0.7,87,61,26,29.84,29.68,3,1,10,0.14
2013-3-22,33.0,23.8,10.2,23.6,15.8,6.3,86,72,53,29.83,29.72,5,1,15,0.02
2013-3-23,36.1,30.6,25.1,21.0,18.1,14.3,81,61,47,29.88,29.77,6,2,21,0.02
2013-3-24,41.7,32.7,27.1,22.3,19.9,18.3,80,60,41,29.91,29.78,4,1,13,0.01
2013-3-25,40.9,34.2,26.5,24.8,21.7,19.0,80,60,46,29.81,29.54,4,1,9,0.00
2013-3-26,42.0,33.9,24.6,27.0,22.7,15.8,84,65,35,29.87,29.62,3,1,11,0.00
2013-3-27,47.6,32.7,17.4,30.5,23.0,14.5,88,69,39,29.96,29.86,4,1,17,0.00
2013-3-28,45.2,37.1,30.4,31.7,29.0,26.3,89,73,53,30.11,29.95,2,0,9,0.01
2013-3-29,47.2,37.5,30.2,30.8,28.8,26.3,91,72,49,30.14,30.07,3,1,12,0.00
2013-3-30,51.5,37.2,24.2,29.7,22.0,14.6,91,61,24,30.16,30.07,4,1,12,0.00
2013-3-31,53.6,37.7,22.1,35.5,24.2,17.1,89,65,25,30.16,29.75,6,2,16,0.26
2013-4-1,51.0,36.8,27.6,41.3,28.2,8.8,92,73,37,29.87,29.57,6,2,22,0.24
2013-4-2,32.3,27.5,23.2,18.2,12.9,6.7,78,55,35,30.00,29.85,7,3,23,0.00
2013-4-3,37.5,29.3,23.0,18.4,12.4,7.5,72,51,29,30.27,29.99,6,3,21,0.00
2013-4-4,51.2,34.6,21.1,22.1,15.7,9.8,81,51,20,30.37,30.04,5,1,12,0.00
2013-4-5,51.7,37.9,25.8,26.0,21.0,12.7,85,56,22,30.04,29.76,6,2,21,0.00
2013-4-6,42.7,31.7,24.2,26.6,8.2,-2.2,78,40,16,30.34,29.97,5,2,17,0.00
2013-4-7,55.6,37.9,23.6,36.9,23.2,12.4,85,60,21,30.33,29.96,9,2,21,0.02
2013-4-8,62.7,45.7,29.8,34.6,30.8,24.5,91,61,25,30.13,30.01,3,1,10,0.00
2013-4-9,58.1,50.0,43.0,47.6,39.8,32.9,92,69,48,30.05,29.90,7,1,21,0.13
2013-4-10,59.5,49.4,42.9,48.2,44.2,37.7,91,83,61,30.01,29.85,3,0,7,0.82
2013-4-11,48.0,41.3,35.4,45.5,35.3,24.6,92,80,61,30.14,29.86,3,1,8,0.05
2013-4-12,36.5,33.8,31.9,29.4,28.4,25.5,85,80,64,30.14,29.83,8,3,24,0.07
2013-4-13,48.3,39.0,32.3,35.3,32.1,28.4,91,77,54,29.98,29.83,3,1,12,0.25
2013-4-14,44.1,37.9,27.4,32.7,27.2,21.3,87,67,43,30.28,29.96,4,1,19,0.01
2013-4-15,61.9,41.9,24.2,32.2,26.7,21.4,90,60,28,30.41,30.26,4,1,15,0.00
2013-4-16,60.8,48.4,33.9,52.0,40.5,29.4,88,75,49,30.37,30.08,9,2,25,0.24
2013-4-17,60.6,49.0,37.9,48.4,33.1,23.4,85,59,25,30.36,30.15,4,1,17,0.07
2013-4-18,58.6,31.4,31.1,34.1,-5.8,-99.9,87,44,33,30.40,30.19,7,2,19,0.00
2013-4-19,66.3,59.3,46.9,58.8,52.9,42.0,86,80,74,29.73,29.57,7,4,19,0.52
2013-4-20,50.9,42.6,32.4,42.1,29.8,18.2,89,63,34,30.27,29.69,6,2,22,0.33
2013-4-21,50.2,36.3,26.8,21.5,16.2,8.2,66,47,19,30.65,30.27,4,1,12,0.00
2013-4-22,56.4,40.9,27.4,26.1,19.0,11.9,73,45,20,30.71,30.53,6,1,19,0.00
2013-4-23,45.6,38.8,32.7,35.8,30.0,23.9,79,71,63,30.54,30.13,3,2,15,0.00
2013-4-24,74.1,54.7,32.7,46.9,38.1,29.9,91,59,23,30.14,29.73,7,2,18,0.00
2013-4-25,58.8,45.4,33.1,49.3,29.9,20.4,82,57,27,30.27,29.74,6,2,26,0.15
2013-4-26,58.0,43.0,28.3,31.6,26.7,19.7,87,57,25,30.43,30.27,4,1,11,0.00
2013-4-27,64.9,46.7,27.6,34.9,26.1,14.0,89,53,15,30.44,30.28,5,1,13,0.00
2013-4-28,72.4,53.6,32.5,36.0,30.9,24.7,84,48,19,30.31,30.12,5,1,13,0.00
2013-4-29,63.2,52.5,42.7,41.1,34.3,27.3,76,52,36,30.22,30.15,5,1,14,0.00
2013-4-30,72.6,57.4,45.4,38.8,32.5,22.0,77,44,16,30.29,30.21,6,1,16,0.00
2013-5-1,75.2,56.2,36.2,37.0,27.9,9.5,81,43,8,30.43,30.29,5,1,14,0.00
2013-5-2,78.5,58.1,37.1,44.1,34.8,20.9,88,49,17,30.43,30.26,4,1,16,0.00
2013-5-3,69.4,56.2,41.9,40.4,31.8,18.3,73,42,22,30.46,30.31,4,1,18,0.00
2013-5-4,74.7,56.3,36.5,41.5,32.9,18.5,91,50,13,30.36,30.18,4,1,11,0.00
2013-5-5,74.1,54.4,33.5,35.7,27.5,15.2,83,43,11,30.26,30.15,5,1,12,0.00
2013-5-6,77.5,55.3,33.3,40.6,31.3,12.1,90,52,9,30.24,30.07,5,1,12,0.00
2013-5-7,80.4,60.9,40.3,49.9,40.7,28.0,92,57,15,30.15,30.02,5,1,13,0.00
2013-5-8,72.5,59.9,49.3,57.2,52.5,45.6,91,78,48,30.13,29.99,5,1,14,0.40
2013-5-9,65.7,57.2,48.0,56.4,52.0,45.8,93,84,57,30.00,29.84,3,0,7,0.16
2013-5-10,75.7,60.9,49.9,56.1,50.0,43.0,92,72,32,29.96,29.85,3,1,9,0.00
2013-5-11,63.3,59.6,54.5,60.0,56.0,50.3,92,88,79,29.85,29.64,4,1,14,0.37
2013-5-12,58.6,51.2,39.9,50.3,39.2,24.0,92,66,30,29.82,29.61,5,1,17,0.00
2013-5-13,46.2,41.3,36.8,31.6,26.5,22.2,80,56,41,30.06,29.83,5,2,16,0.00
2013-5-14,53.6,41.0,28.4,31.3,27.2,21.2,89,62,32,30.09,30.00,3,1,10,0.00
2013-5-15,59.5,45.4,28.3,49.3,36.6,25.5,91,74,33,30.07,29.66,5,1,14,0.12
2013-5-16,75.5,61.1,41.2,45.9,34.5,22.4,92,45,16,29.81,29.67,7,2,21,0.00
2013-5-17,66.5,53.7,41.6,39.2,35.9,28.8,85,55,26,30.21,29.81,5,1,15,0.00
2013-5-18,72.3,56.5,39.8,44.1,37.7,30.8,84,55,23,30.29,30.19,4,1,11,0.00
2013-5-19,59.3,51.9,42.2,52.6,47.8,39.5,91,86,72,30.30,30.17,3,0,7,0.08
2013-5-20,77.8,62.4,53.3,61.9,56.1,50.5,92,81,55,30.17,29.93,3,0,8,0.00
2013-5-21,86.6,67.9,53.4,67.2,58.9,51.1,93,76,36,29.96,29.78,4,1,13,1.04
2013-5-22,79.1,64.6,54.4,67.6,60.3,51.2,93,87,67,29.91,29.79,4,0,10,1.53
2013-5-23,74.9,66.7,59.6,65.4,62.5,57.3,93,87,68,29.83,29.70,4,1,15,0.23
2013-5-24,63.4,52.8,41.6,61.0,49.4,38.4,93,88,77,29.91,29.61,3,0,12,0.82
2013-5-25,44.4,41.3,38.1,40.6,38.2,34.9,93,89,82,29.91,29.83,3,1,15,0.86
2013-5-26,50.4,42.6,35.6,44.0,38.6,33.5,92,86,74,30.13,29.82,4,1,16,0.59
2013-5-27,68.2,49.3,31.1,43.4,35.0,29.3,94,65,25,30.19,30.11,4,1,11,0.00
2013-5-28,73.3,56.4,36.5,50.9,39.8,31.7,92,60,23,30.22,30.11,4,1,12,0.00
2013-5-29,77.7,63.3,55.0,66.9,58.1,50.5,92,84,60,30.12,29.91,3,0,11,1.31
2013-5-30,85.0,69.1,58.0,67.3,60.6,55.7,93,77,42,30.10,30.02,4,1,17,0.01
2013-5-31,90.3,73.3,56.8,68.0,59.9,51.4,93,69,27,30.10,29.91,4,1,13,0.00
2013-6-1,90.4,73.1,60.1,72.9,62.4,57.0,93,73,33,29.95,29.81,5,0,13,0.03
2013-6-2,87.3,71.4,62.7,67.8,64.1,60.3,93,80,46,29.84,29.65,6,1,17,0.29
2013-6-3,69.1,62.1,49.9,62.7,53.3,39.4,93,75,50,29.88,29.75,4,1,12,0.01
2013-6-4,69.8,55.7,44.9,46.9,41.0,36.5,86,60,34,30.10,29.87,5,1,16,0.00
2013-6-5,72.5,56.5,42.1,46.4,41.0,30.3,92,62,25,30.19,30.09,4,1,9,0.00
2013-6-6,70.8,58.4,46.6,51.6,45.7,40.5,89,65,36,30.16,30.04,5,1,13,0.27
2013-6-7,53.8,52.4,51.2,50.2,49.0,46.6,91,88,82,30.04,29.79,3,1,21,1.19
2013-6-8,65.0,57.7,50.9,57.3,53.0,48.2,92,85,73,30.02,29.68,3,1,12,0.21
2013-6-9,74.7,62.2,53.0,56.3,52.5,49.5,93,73,43,30.17,30.02,3,0,12,0.00
2013-6-10,67.3,57.8,48.1,58.5,53.5,45.8,93,86,61,30.18,29.90,4,1,17,0.89
2013-6-11,63.1,58.6,54.9,58.0,54.9,52.0,92,88,81,29.90,29.57,4,1,13,1.00
2013-6-12,68.1,58.0,50.8,53.9,51.0,47.7,91,79,49,29.84,29.60,4,1,15,0.12
2013-6-13,56.1,51.7,45.7,53.7,48.9,43.5,93,90,87,29.83,29.66,3,1,15,1.36
2013-6-14,73.3,58.0,49.2,58.9,50.3,41.5,93,78,32,29.84,29.66,3,1,11,0.17
2013-6-15,74.4,59.3,44.1,52.7,44.7,37.0,94,65,29,29.96,29.84,4,1,14,0.01
2013-6-16,70.6,59.0,46.3,59.0,51.4,43.5,91,77,51,29.95,29.70,4,1,15,0.03
2013-6-17,77.9,63.6,55.5,66.0,58.0,52.7,92,83,49,29.90,29.78,5,1,18,1.11
2013-6-18,66.1,58.2,50.8,60.9,54.9,48.8,94,89,75,29.93,29.87,3,0,6,0.04
2013-6-19,69.7,56.1,42.3,51.4,43.2,30.1,94,68,25,30.17,29.93,4,1,17,0.00
2013-6-20,77.1,59.2,40.8,55.1,44.0,33.0,91,63,23,30.26,30.17,3,0,11,0.00
2013-6-21,81.7,65.7,50.3,57.0,47.9,35.8,93,60,24,30.24,30.19,3,0,8,0.00
2013-6-22,83.1,69.0,53.7,63.0,56.9,50.5,92,68,38,30.21,30.06,5,1,12,0.00
2013-6-23,89.7,74.3,61.2,68.5,62.8,58.2,91,70,43,30.11,29.95,4,1,13,0.00
2013-6-24,88.6,71.7,62.0,69.1,64.3,59.3,92,80,46,30.00,29.88,4,0,11,0.93
2013-6-25,87.6,71.6,62.0,69.6,64.6,59.6,93,81,44,29.95,29.70,5,1,16,0.49
2013-6-26,79.8,69.4,63.3,68.2,64.9,60.6,93,86,63,29.81,29.72,2,0,7,0.12
2013-6-27,82.3,70.4,59.5,67.8,63.7,57.5,94,81,55,29.81,29.61,4,1,12,0.31
2013-6-28,79.2,70.8,63.8,68.2,64.2,60.7,92,81,56,29.62,29.42,4,1,18,0.74
2013-6-29,81.7,71.4,63.5,64.6,61.8,56.7,93,74,44,29.66,29.45,5,1,13,0.00
2013-6-30,82.5,70.1,61.1,69.8,63.7,58.6,92,82,54,29.89,29.66,4,0,11,0.09
2013-7-1,78.8,70.1,63.8,70.6,66.5,61.7,93,89,70,30.01,29.90,2,0,7,0.09
2013-7-2,84.0,73.6,69.4,71.4,68.9,66.7,93,86,61,30.11,30.00,4,1,12,0.72
2013-7-3,84.7,75.4,69.9,71.1,68.9,67.0,93,82,59,30.17,30.09,3,1,11,0.00
2013-7-4,89.2,77.5,67.5,71.7,68.2,64.8,93,75,46,30.18,30.06,4,1,11,0.00
2013-7-5,90.9,78.5,69.9,71.3,69.1,65.3,92,75,44,30.13,30.00,4,1,13,0.00
2013-7-6,84.8,75.0,66.3,69.6,65.7,61.1,92,75,47,30.07,29.98,4,1,15,0.00
2013-7-7,88.8,74.0,62.5,74.4,66.7,60.1,92,79,51,30.03,29.90,3,0,7,0.02
2013-7-8,83.3,73.8,68.0,69.6,66.3,63.3,93,79,55,30.00,29.90,3,0,7,0.04
2013-7-9,83.6,71.8,65.0,70.9,66.4,62.6,93,84,58,30.05,29.97,3,0,7,0.04
2013-7-10,82.2,72.9,67.9,71.7,68.5,65.5,93,87,67,29.99,29.75,5,1,15,0.13
2013-7-11,80.8,72.0,63.3,67.8,63.1,57.3,93,76,47,29.94,29.73,4,0,11,0.01
2013-7-12,81.8,69.9,58.2,64.1,58.0,54.6,90,68,46,30.16,29.94,2,0,12,0.00
2013-7-13,74.0,68.9,62.5,67.5,60.8,50.6,92,76,56,30.27,30.15,3,0,8,0.06
2013-7-14,88.7,75.9,66.4,71.3,67.4,64.3,93,77,47,30.30,30.19,2,0,8,0.00
2013-7-15,88.5,76.3,65.1,70.7,66.2,61.6,93,74,44,30.20,30.10,4,1,10,0.00
2013-7-16,89.3,75.0,61.6,69.7,64.2,59.3,93,72,41,30.19,30.11,4,1,11,0.00
2013-7-17,90.7,76.7,63.4,71.4,65.7,60.8,92,72,40,30.18,29.99,3,0,10,0.00
2013-7-18,91.0,79.0,70.3,73.0,68.7,64.9,92,73,44,30.01,29.90,3,1,13,0.00
2013-7-19,92.1,78.8,65.8,73.8,68.6,62.6,93,73,49,29.92,29.68,5,1,20,0.13
2013-7-20,85.8,72.2,62.2,70.5,64.3,58.8,93,78,49,29.82,29.66,4,1,16,0.01
2013-7-21,81.9,68.7,57.3,64.6,58.8,54.2,93,74,42,29.97,29.82,4,0,10,0.00
2013-7-22,83.0,70.9,59.8,66.3,62.0,56.9,91,75,51,29.97,29.81,4,0,13,0.00
2013-7-23,80.5,71.2,64.3,69.4,65.7,61.6,93,84,59,29.81,29.52,3,0,9,1.46
2013-7-24,74.3,65.7,54.3,64.1,57.3,48.0,93,76,48,29.97,29.58,4,1,16,0.00
2013-7-25,74.0,59.4,45.1,58.4,51.1,42.8,93,75,53,30.08,29.97,2,0,5,0.00
2013-7-26,72.4,63.0,55.7,60.3,56.3,52.8,91,79,57,30.05,29.98,3,0,9,0.00
2013-7-27,82.0,65.6,50.0,64.2,55.8,47.9,94,74,40,30.04,29.94,4,1,9,0.00
2013-7-28,76.1,66.2,59.1,67.8,62.1,56.8,93,87,64,29.98,29.91,2,0,8,0.68
2013-7-29,80.1,69.5,58.7,65.2,61.4,55.5,93,78,48,30.07,29.93,3,0,10,0.01
2013-7-30,76.3,62.9,50.2,58.2,54.1,48.0,94,75,45,30.12,30.05,3,1,9,0.00
2013-7-31,79.1,64.0,50.2,60.3,54.6,48.0,94,75,42,30.15,30.02,3,0,10,0.00
2013-8-1,75.0,62.5,54.0,63.5,58.2,51.4,93,86,64,30.03,29.83,4,0,13,0.17
2013-8-2,78.5,67.6,60.2,61.7,58.1,50.3,93,75,40,29.85,29.78,3,1,13,0.01
2013-8-3,77.7,64.5,53.6,58.2,53.6,46.7,92,71,34,29.86,29.78,4,1,15,0.00
2013-8-4,73.3,58.5,48.6,58.6,51.9,46.4,93,81,48,29.94,29.81,3,1,14,0.53
2013-8-5,71.9,58.5,49.5,51.0,46.8,39.2,94,70,32,30.05,29.93,6,1,20,0.01
2013-8-6,77.6,60.3,44.8,57.2,48.8,42.4,92,70,34,30.12,30.05,4,0,8,0.00
2013-8-7,76.5,65.4,54.6,60.5,56.0,50.9,91,74,42,30.14,30.04,4,1,11,0.00
2013-8-8,81.9,72.1,64.9,68.3,65.2,60.6,92,80,60,30.04,29.95,4,1,13,0.01
2013-8-9,73.3,70.6,67.6,70.5,67.7,65.5,93,91,83,29.96,29.73,2,0,7,2.79
2013-8-10,75.0,65.8,51.6,65.8,55.0,45.8,93,72,38,30.03,29.81,5,1,17,0.00
2013-8-11,75.4,59.8,45.9,56.6,50.1,43.7,94,74,40,30.10,30.00,3,0,12,0.00
2013-8-12,78.5,63.3,50.9,61.6,54.5,48.7,94,76,42,30.04,29.90,3,0,8,0.00
2013-8-13,71.4,64.0,59.1,65.4,60.6,56.5,93,89,77,29.91,29.65,3,0,14,1.72
2013-8-14,67.9,58.6,50.5,57.8,51.0,47.8,91,76,56,29.98,29.72,4,1,16,0.00
2013-8-15,71.1,56.8,43.8,54.2,48.3,41.7,93,76,43,30.12,29.98,5,1,13,0.00
2013-8-16,75.1,59.1,46.4,55.2,49.1,44.3,94,73,37,30.20,30.12,3,0,13,0.00
2013-8-17,79.8,61.3,46.0,60.6,51.9,43.9,94,75,36,30.28,30.21,2,0,8,0.00
2013-8-18,72.3,61.6,51.7,62.7,56.2,49.5,93,83,62,30.26,30.10,1,0,4,0.00
2013-8-19,77.8,62.8,51.8,62.0,55.8,49.8,94,80,46,30.10,29.97,3,0,10,0.01
2013-8-20,80.5,64.9,51.0,62.6,55.6,49.0,94,75,41,30.12,30.01,3,0,9,0.00
2013-8-21,83.3,67.0,53.4,66.0,58.3,51.3,94,77,38,30.16,30.02,4,0,13,0.00
2013-8-22,84.7,68.9,56.8,67.0,60.5,54.6,94,78,40,30.03,29.80,3,0,12,0.01
2013-8-23,75.5,64.9,49.8,64.3,54.7,46.1,93,72,44,30.14,29.84,4,1,11,0.00
2013-8-24,78.1,58.5,42.3,57.3,48.5,40.0,94,73,38,30.35,30.14,3,0,8,0.00
2013-8-25,79.0,61.3,45.0,59.9,50.9,42.7,94,73,32,30.38,30.17,4,0,9,0.00
2013-8-26,70.4,63.9,59.4,64.5,60.8,56.4,93,90,79,30.17,29.87,2,0,5,0.37
2013-8-27,82.0,69.7,63.2,68.8,64.8,61.1,94,85,60,29.89,29.82,3,0,11,0.06
2013-8-28,85.7,68.7,58.8,70.4,63.4,56.8,94,84,48,29.92,29.80,2,0,5,0.33
2013-8-29,74.8,66.5,59.5,64.7,61.2,57.3,94,84,64,30.02,29.92,2,0,11,0.00
2013-8-30,81.9,69.6,63.0,68.4,62.7,60.0,92,80,51,30.00,29.80,3,0,7,0.00
2013-8-31,80.8,70.3,64.4,71.8,66.6,62.0,93,88,71,29.80,29.72,3,0,11,0.17
2013-9-1,82.7,70.6,65.7,72.4,66.7,63.6,94,88,64,29.83,29.77,3,0,8,0.31
2013-9-2,80.1,70.4,64.7,71.1,66.6,62.3,94,88,71,29.79,29.66,4,0,19,1.48
2013-9-3,72.0,64.7,59.7,63.1,58.9,54.4,94,82,61,29.83,29.69,2,0,10,0.02
2013-9-4,74.5,63.9,53.9,56.6,53.8,47.6,90,72,40,29.92,29.82,4,1,13,0.00
2013-9-5,66.2,57.9,43.9,57.3,47.3,35.6,93,71,35,30.16,29.86,4,1,14,0.01
2013-9-6,66.0,49.6,36.6,44.4,39.1,33.9,94,72,32,30.26,30.12,4,0,12,0.00
2013-9-7,74.1,55.6,40.7,58.0,47.3,38.6,94,78,30,30.13,29.87,3,0,8,0.03
2013-9-8,66.0,57.1,42.4,57.7,49.7,39.5,93,79,41,30.11,29.78,4,1,14,0.03
2013-9-9,67.8,50.7,35.7,50.8,42.5,33.6,94,77,45,30.23,30.10,3,0,8,0.00
2013-9-10,75.7,62.7,49.1,68.5,59.1,46.6,93,89,76,30.13,30.00,3,0,7,0.51
2013-9-11,91.3,73.4,61.3,75.1,66.6,59.3,94,82,48,30.07,29.92,5,1,18,0.50
2013-9-12,76.8,67.4,63.8,72.8,64.9,61.6,94,92,83,29.94,29.65,4,0,14,2.23
2013-9-13,68.8,61.8,53.7,62.9,57.6,48.9,94,86,71,29.81,29.60,3,0,10,0.06
2013-9-14,57.4,52.4,46.0,50.9,48.1,43.8,92,85,73,30.09,29.80,2,0,10,0.02
2013-9-15,68.8,51.5,36.8,52.5,44.8,35.0,94,80,47,30.19,30.05,4,0,10,0.01
2013-9-16,63.7,52.2,38.0,52.3,47.2,35.3,93,84,61,30.27,30.02,4,0,12,0.03
2013-9-17,64.2,45.6,31.3,45.6,37.2,29.3,94,76,36,30.44,30.27,4,0,11,0.01
2013-9-18,70.6,50.3,34.0,51.5,41.8,32.2,94,77,38,30.36,30.16,2,0,7,0.01
2013-9-19,76.7,54.5,38.1,56.2,45.6,36.3,94,77,26,30.17,30.04,2,0,7,0.00
2013-9-20,79.0,57.8,42.1,58.2,49.5,40.1,94,77,37,30.09,29.96,4,0,10,0.01
2013-9-21,71.4,60.5,46.8,61.6,53.8,44.6,94,80,50,29.99,29.62,6,2,20,0.11
2013-9-22,63.5,55.5,48.0,60.8,48.2,39.8,93,77,58,29.88,29.58,5,1,13,0.77
2013-9-23,50.9,27.5,39.0,42.6,-13.7,-99.9,91,51,66,30.05,29.87,4,0,12,0.00
2013-9-24,62.3,47.1,37.9,47.0,39.7,34.9,92,78,45,30.05,29.88,3,1,12,0.00
2013-9-25,68.9,51.3,38.5,51.5,44.6,36.4,93,80,48,29.98,29.88,3,0,10,0.00
2013-9-26,65.4,52.3,43.1,50.6,45.6,40.9,93,80,52,30.13,29.98,3,0,8,0.00
2013-9-27,58.5,48.3,39.0,51.3,44.6,37.1,94,87,70,30.30,30.13,1,0,4,0.01
2013-9-28,72.5,51.2,35.8,56.3,45.1,34.0,94,82,43,30.36,30.26,2,0,6,0.00
2013-9-29,71.6,53.6,40.7,54.4,46.6,38.8,94,80,42,30.26,30.07,4,0,9,0.01
2013-9-30,72.5,53.3,39.2,52.3,45.5,37.1,94,78,42,30.10,29.95,3,0,8,0.00
2013-10-1,74.0,54.6,39.3,58.2,48.2,37.4,94,81,50,30.01,29.89,3,0,11,0.01
2013-10-2,72.2,58.8,45.5,59.5,52.2,43.6,94,80,58,30.00,29.88,4,1,15,0.00
2013-10-3,72.3,55.2,39.8,53.0,46.5,37.7,94,76,34,30.11,30.00,3,0,8,0.01
2013-10-4,61.5,56.0,50.7,58.1,53.1,48.0,93,90,87,30.08,30.02,1,0,2,0.36
2013-10-5,62.6,59.3,56.8,58.7,56.3,54.5,93,90,79,30.09,30.04,1,0,4,0.10
2013-10-6,58.8,55.9,53.3,56.8,52.8,49.4,93,89,85,30.13,30.06,4,0,13,0.18
2013-10-7,73.7,60.4,50.6,64.4,56.1,47.0,92,86,71,30.07,29.67,7,2,20,0.68
2013-10-8,61.5,50.2,38.3,47.5,40.5,32.6,92,72,39,30.37,29.91,5,1,18,0.00
2013-10-9,65.0,45.8,32.5,41.2,35.6,30.7,94,73,30,30.48,30.36,3,0,8,0.00
2013-10-10,58.6,46.3,35.3,47.1,40.2,33.2,94,81,47,30.37,30.18,2,0,4,0.00
2013-10-11,74.1,53.7,38.4,46.2,37.5,13.8,92,63,12,30.18,30.08,1,0,6,0.00
2013-10-12,65.8,54.0,42.1,51.5,46.3,38.0,87,76,55,30.35,30.15,4,1,16,0.00
2013-10-13,65.6,53.7,45.3,48.4,44.9,40.3,90,74,49,30.41,30.33,2,0,8,0.00
2013-10-14,69.7,54.6,43.0,52.3,46.7,40.3,91,77,45,30.36,30.21,3,0,7,0.00
2013-10-15,63.9,58.6,53.8,54.1,52.2,48.4,91,80,68,30.25,30.11,3,0,9,0.00
2013-10-16,63.8,54.2,47.3,52.5,48.3,44.7,92,81,63,30.11,29.88,2,0,6,0.00
2013-10-17,68.6,57.2,51.2,52.7,49.2,44.1,93,77,42,29.88,29.63,3,0,8,0.07
2013-10-18,60.8,55.0,49.8,57.0,44.0,32.8,93,68,39,29.90,29.57,5,2,18,0.17
2013-10-19,63.3,50.5,35.3,44.3,38.4,32.9,93,66,38,29.95,29.72,5,1,11,0.00
2013-10-20,55.7,47.3,35.9,46.5,36.0,29.3,88,67,38,30.02,29.68,5,2,15,0.02
2013-10-21,64.2,46.4,33.3,40.5,35.9,31.0,92,71,35,30.11,29.95,5,1,13,0.00
2013-10-22,53.5,42.8,34.7,49.3,38.8,31.2,94,86,76,29.94,29.72,3,0,9,0.09
2013-10-23,49.5,38.7,29.1,34.8,31.0,26.6,93,76,42,29.80,29.60,2,0,6,0.00
2013-10-24,46.5,39.9,30.7,33.7,28.9,22.3,89,67,40,29.90,29.68,4,1,17,0.03
2013-10-25,44.7,38.7,34.0,34.0,29.3,24.4,87,70,47,30.15,29.90,5,1,16,0.00
2013-10-26,47.3,42.2,34.7,33.1,29.2,23.8,83,62,40,30.14,29.83,7,2,17,0.00
2013-10-27,46.9,42.1,30.9,33.5,30.4,27.1,86,64,50,30.06,29.78,4,1,16,0.00
2013-10-28,53.4,36.7,26.2,34.3,27.8,22.9,93,73,40,30.35,30.06,5,1,17,0.00
2013-10-29,44.1,30.4,20.9,23.4,19.7,14.0,90,69,32,30.46,30.35,3,0,14,0.00
2013-10-30,51.0,36.3,27.0,38.0,30.2,21.4,91,79,60,30.37,30.21,2,0,6,0.02
2013-10-31,58.0,45.4,28.2,55.7,42.8,25.9,93,91,80,30.25,29.72,4,1,12,0.85
2013-11-1,65.9,59.2,49.9,59.5,52.4,40.1,92,79,51,29.72,29.39,6,2,20,0.98
2013-11-2,61.7,47.0,35.7,45.5,39.9,33.3,93,78,44,29.77,29.59,4,0,9,0.12
2013-11-3,43.9,34.2,22.8,38.8,22.9,9.1,90,65,41,30.44,29.75,3,1,12,0.00
2013-11-4,41.6,27.2,17.2,21.7,17.3,10.9,89,70,33,30.70,30.45,3,0,8,0.00
2013-11-5,49.7,34.8,23.1,32.8,26.4,19.3,86,72,50,30.70,30.50,5,1,13,0.00
2013-11-6,57.2,46.1,34.5,45.3,38.7,31.4,90,76,55,30.50,29.98,8,2,18,0.00
2013-11-7,55.5,47.6,34.9,51.3,40.7,22.2,92,77,57,29.98,29.72,8,2,21,0.45
2013-11-8,41.0,34.4,27.5,31.8,26.1,20.0,86,72,50,30.10,29.83,6,1,19,0.01
2013-11-9,39.5,32.9,25.7,29.8,24.6,20.2,85,72,53,30.23,29.97,3,1,9,0.00
2013-11-10,46.3,39.0,30.5,37.6,32.1,26.2,93,77,60,29.97,29.75,7,2,23,0.05
2013-11-11,44.3,39.5,34.3,29.9,26.6,24.0,71,60,50,30.11,29.89,6,2,21,0.00
2013-11-12,42.8,28.9,20.6,33.0,19.6,12.6,87,68,54,30.24,29.89,4,1,14,0.01
2013-11-13,30.6,25.2,17.7,18.1,12.8,6.4,72,60,37,30.34,30.17,4,1,13,0.00
2013-11-14,46.7,32.1,22.1,24.3,19.2,11.9,89,62,35,30.16,30.08,5,1,13,0.00
2013-11-15,55.0,32.6,19.4,26.3,20.2,9.0,90,68,16,30.23,30.12,3,0,5,0.00
2013-11-16,57.1,39.4,29.9,32.4,28.6,23.2,89,69,35,30.32,30.21,3,0,8,0.00
2013-11-17,57.4,45.7,30.1,52.6,42.5,27.0,91,88,85,30.29,29.75,5,1,13,0.05
2013-11-18,59.9,53.3,38.2,55.4,40.0,26.9,91,63,37,29.75,29.48,7,3,21,0.42
2013-11-19,37.9,32.9,25.4,27.9,19.8,15.2,71,58,48,30.34,29.70,6,2,19,0.00
2013-11-20,36.9,25.4,17.7,18.2,15.7,13.1,88,68,42,30.64,30.34,4,1,10,0.00
2013-11-21,42.7,28.9,14.6,29.8,20.1,11.2,88,72,34,30.65,30.39,5,0,13,0.00
2013-11-22,45.6,39.4,32.4,42.7,36.9,29.1,93,91,82,30.39,29.86,4,0,14,0.11
2013-11-23,44.1,31.9,21.2,39.0,23.0,13.1,85,70,53,29.99,29.81,5,3,23,0.00
2013-11-24,21.9,17.0,11.7,13.4,2.2,-4.5,77,53,32,30.28,29.86,7,3,29,0.00
2013-11-25,28.3,19.6,6.6,13.0,6.3,-1.2,79,56,41,30.43,30.25,4,1,11,0.00
2013-11-26,33.7,29.1,24.0,30.2,24.0,11.3,91,82,50,30.31,29.98,2,0,7,0.00
2013-11-27,43.2,36.3,30.6,41.3,33.6,26.5,93,90,85,29.97,29.36,4,1,20,1.10
2013-11-28,30.4,21.4,11.5,26.4,12.8,7.7,87,70,49,30.44,29.55,6,2,19,0.00
2013-11-29,27.7,17.3,9.5,16.0,10.8,5.5,89,77,50,30.75,30.44,4,0,11,0.00
2013-11-30,28.8,17.8,5.1,15.8,6.8,1.1,85,64,38,30.80,30.42,5,1,11,0.00
2013-12-1,39.9,31.2,25.3,31.1,26.2,15.5,91,82,66,30.42,30.02,0,0,2,0.04
2013-12-2,40.7,32.6,26.4,34.0,29.3,24.1,92,88,75,30.02,29.89,1,0,3,0.01
2013-12-3,40.7,31.8,24.3,34.3,28.2,22.2,92,87,74,29.99,29.90,2,0,7,0.01
2013-12-4,41.9,30.9,25.8,28.4,25.6,23.4,92,82,49,30.17,29.98,3,0,7,0.00
2013-12-5,53.4,44.5,29.5,50.5,41.4,26.9,92,89,83,30.17,29.89,6,1,14,0.04
2013-12-6,52.9,39.4,31.3,50.3,35.7,28.1,91,87,79,30.14,29.85,3,1,13,0.12
2013-12-7,33.8,29.3,25.3,28.5,22.3,17.0,90,75,56,30.46,30.09,4,1,15,0.00
2013-12-8,27.5,25.1,21.2,19.5,14.6,10.6,78,65,51,30.57,30.45,4,0,11,0.00
2013-12-9,36.3,28.6,22.5,31.2,24.3,13.9,92,84,62,30.45,29.90,4,1,15,0.00
2013-12-10,34.0,27.8,20.2,27.9,20.0,12.0,85,72,64,29.98,29.81,4,1,16,0.00
2013-12-11,26.4,22.6,19.1,18.3,12.4,6.2,86,65,55,30.20,29.98,5,2,18,0.00
2013-12-12,20.9,14.4,6.3,14.1,3.8,-1.6,84,63,43,30.30,30.05,5,1,14,0.00
2013-12-13,23.0,16.9,5.2,17.3,8.0,-1.3,84,68,54,30.40,29.98,5,1,14,0.00
2013-12-14,15.1,10.0,4.6,11.7,2.9,-1.2,86,73,58,30.57,30.10,7,1,21,0.00
2013-12-15,28.6,22.9,15.6,24.7,18.0,12.2,87,81,72,30.09,29.53,8,3,28,0.00
2013-12-16,24.0,17.0,4.9,18.8,7.2,-1.1,81,65,49,30.23,29.73,5,2,17,0.00
2013-12-17,16.5,7.0,-7.7,13.2,3.1,-12.4,87,84,78,30.27,30.05,1,0,4,0.00
2013-12-18,26.5,19.7,6.0,20.6,15.0,2.5,87,82,69,30.10,30.01,4,1,14,0.00
2013-12-19,39.1,30.9,17.5,28.2,21.3,13.9,87,68,48,30.12,29.99,4,1,13,0.06
2013-12-20,41.0,34.2,29.8,34.2,30.4,26.4,92,86,71,30.12,29.95,2,0,8,0.32
2013-12-21,51.4,37.5,32.7,44.5,35.0,30.9,93,91,74,29.99,29.88,2,0,6,0.32
2013-12-22,58.2,47.4,36.2,55.2,45.2,34.2,94,92,86,29.95,29.71,5,1,15,0.19
2013-12-23,42.0,38.6,32.0,40.4,36.0,24.6,94,91,74,30.16,29.92,4,1,14,0.35
2013-12-24,31.8,24.9,15.2,25.4,15.2,5.4,77,66,52,30.30,30.11,4,1,25,0.00
2013-12-25,18.8,14.0,6.5,7.4,2.9,-1.1,72,61,50,30.54,30.30,4,1,16,0.00
2013-12-26,27.7,24.3,18.0,23.0,17.6,4.6,85,76,55,30.48,30.14,4,1,12,0.00
2013-12-27,31.0,27.4,23.5,21.3,17.8,14.6,75,67,52,30.30,30.23,4,2,16,0.00
2013-12-28,43.0,29.4,15.2,27.9,22.1,12.3,90,75,50,30.25,30.05,5,1,14,0.01
2013-12-29,39.5,31.4,25.3,33.1,28.4,22.8,93,89,71,30.09,29.57,1,0,4,0.77
2013-12-30,35.7,23.7,8.7,32.6,16.5,2.7,93,74,59,30.20,29.65,6,2,23,0.06
2013-12-31,19.8,13.5,5.3,15.7,6.5,1.2,86,74,55,30.24,30.05,5,1,17,0.00
2014-1-1,21.9,15.0,10.8,9.8,6.5,1.2,85,69,52,30.40,30.22,4,1,16,0.00
2014-1-2,14.4,11.4,6.3,11.0,6.7,1.3,86,81,73,30.37,29.86,5,1,21,0.00